Wolf 59 — CGBP — position and weather

sailwx.info

Track history (hours):
 
Tides and Currents Weather Stations Pressure Air Temp Water Temp Dewpoint Dewpoint Depression Visibility Wind Speed Wind Dir Waves Ship Positions

Wolf 59

Last reported at 2014-Nov-27 17:32 UTC. Time now 2014-Nov-27 19:29 UTC.
Position N 48°26' W 123°26'.

Length 33 m; draft 2.6 m.

Type: Military. MMSI: 316011515.

Date/timePositionNaut miles runAvg speedWind from/ knotsBaromVisibWave heightAir tempDewpointWater temp
2014-Nov-27 17:32N 48°26' W 123°26'0 0.0
2014-Nov-26 10:12N 48°26' W 123°26'0 0.0
2014-Nov-26 06:30N 48°26' W 123°26'0 0.0
2014-Nov-26 05:28N 48°26' W 123°26'0 0.0
2014-Nov-25 12:12N 48°26' W 123°26'0 0.0
2014-Nov-25 09:11N 48°26' W 123°26'0 0.0
2014-Nov-25 08:33N 48°26' W 123°26'0 0.0
2014-Nov-25 07:30N 48°26' W 123°26'0 0.0
2014-Nov-25 01:33N 48°26' W 123°26'0 0.0
2014-Nov-24 20:11N 48°26' W 123°26'0 0.0
2014-Nov-23 23:33N 48°26' W 123°26'0 0.0
2014-Nov-23 13:09N 48°26' W 123°26'0 0.0
2014-Nov-23 11:33N 48°26' W 123°26'0 0.0
2014-Nov-21 23:24N 48°26' W 123°26'2 0.1
2014-Nov-20 23:33N 48°24' W 123°27'5 4.4
2014-Nov-20 22:31N 48°20' W 123°29'6 5.9
2014-Nov-20 21:32N 48°25' W 123°27'1 0.8
2014-Nov-20 20:31N 48°26' W 123°26'0 0.0
2014-Nov-20 19:28N 48°26' W 123°26'0 0.0
2014-Nov-20 18:31N 48°26' W 123°26'0 0.0
2014-Nov-20 17:22N 48°26' W 123°26'0 0.0
2014-Nov-20 16:31N 48°26' W 123°26'0 0.0
2014-Nov-20 14:28N 48°26' W 123°26'0 0.0
2014-Nov-20 13:22N 48°26' W 123°26'0 0.0
2014-Nov-20 12:19N 48°26' W 123°26'0 0.0
2014-Nov-20 11:10N 48°26' W 123°26'0 0.0
2014-Nov-20 10:28N 48°26' W 123°26'0 0.0
2014-Nov-20 09:16N 48°26' W 123°26'0 0.0
2014-Nov-20 08:28N 48°26' W 123°26'0 0.0
2014-Nov-20 02:04N 48°26' W 123°26'0 0.0
2014-Nov-20 00:25N 48°26' W 123°26'0 0.0
2014-Nov-19 23:31N 48°26' W 123°26'0 0.0
2014-Nov-19 22:31N 48°26' W 123°26'0 0.0
2014-Nov-19 21:31N 48°26' W 123°26'0 0.0
2014-Nov-19 19:31N 48°26' W 123°26'0 0.0
2014-Nov-19 17:28N 48°26' W 123°26'0 0.0
2014-Nov-19 16:31N 48°26' W 123°26'0 0.0
2014-Nov-19 15:31N 48°26' W 123°26'0 0.0
2014-Nov-19 14:31N 48°26' W 123°26'0 0.0
2014-Nov-19 13:22N 48°26' W 123°26'0 0.0
2014-Nov-19 12:25N 48°26' W 123°26'0 0.0
2014-Nov-19 11:31N 48°26' W 123°26'0 0.0
2014-Nov-19 10:19N 48°26' W 123°26'0 0.0
2014-Nov-19 09:28N 48°26' W 123°26'0 0.0
2014-Nov-19 08:25N 48°26' W 123°26'0 0.0
2014-Nov-19 07:31N 48°26' W 123°26'0 0.0
2014-Nov-19 06:28N 48°26' W 123°26'0 0.0
2014-Nov-19 04:31N 48°26' W 123°26'0 0.0
2014-Nov-19 03:07N 48°26' W 123°26'0 0.0
2014-Nov-19 02:19N 48°26' W 123°26'0 0.0
2014-Nov-18 23:04N 48°26' W 123°26'0 0.0
2014-Nov-18 16:21N 48°26' W 123°26'0 0.0
2014-Nov-18 07:06N 48°26' W 123°26'0 0.0
2014-Nov-18 00:21N 48°26' W 123°26'0 0.0
2014-Nov-17 23:33N 48°26' W 123°26'0 0.0
2014-Nov-17 22:33N 48°26' W 123°26'0 0.0
2014-Nov-17 21:30N 48°26' W 123°26'0 0.0
2014-Nov-17 20:30N 48°26' W 123°26'0 0.0
2014-Nov-17 19:33N 48°26' W 123°26'3 2.6
2014-Nov-17 18:29N 48°23' W 123°27'  
Track history (hours):
 
Tides and Currents Weather Stations Pressure Air Temp Water Temp Dewpoint Dewpoint Depression Visibility Wind Speed Wind Dir Waves Ship Positions

Wolf 59

Last reported at 2014-Nov-27 17:32 UTC. Time now 2014-Nov-27 19:29 UTC.
Position N 48°26' W 123°26'.

Length 33 m; draft 2.6 m.

Type: Military. MMSI: 316011515.

Date/timePositionNaut miles runAvg speedWind from/ knotsBaromVisibWave heightAir tempDewpointWater temp
2014-Nov-27 17:32N 48°26' W 123°26'0 0.0
2014-Nov-26 10:12N 48°26' W 123°26'0 0.0
2014-Nov-26 06:30N 48°26' W 123°26'0 0.0
2014-Nov-26 05:28N 48°26' W 123°26'0 0.0
2014-Nov-25 12:12N 48°26' W 123°26'0 0.0
2014-Nov-25 09:11N 48°26' W 123°26'0 0.0
2014-Nov-25 08:33N 48°26' W 123°26'0 0.0
2014-Nov-25 07:30N 48°26' W 123°26'0 0.0
2014-Nov-25 01:33N 48°26' W 123°26'0 0.0
2014-Nov-24 20:11N 48°26' W 123°26'0 0.0
2014-Nov-23 23:33N 48°26' W 123°26'0 0.0
2014-Nov-23 13:09N 48°26' W 123°26'0 0.0
2014-Nov-23 11:33N 48°26' W 123°26'0 0.0
2014-Nov-21 23:24N 48°26' W 123°26'2 0.1
2014-Nov-20 23:33N 48°24' W 123°27'5 4.4
2014-Nov-20 22:31N 48°20' W 123°29'6 5.9
2014-Nov-20 21:32N 48°25' W 123°27'1 0.8
2014-Nov-20 20:31N 48°26' W 123°26'0 0.0
2014-Nov-20 19:28N 48°26' W 123°26'0 0.0
2014-Nov-20 18:31N 48°26' W 123°26'0 0.0
2014-Nov-20 17:22N 48°26' W 123°26'0 0.0
2014-Nov-20 16:31N 48°26' W 123°26'0 0.0
2014-Nov-20 14:28N 48°26' W 123°26'0 0.0
2014-Nov-20 13:22N 48°26' W 123°26'0 0.0
2014-Nov-20 12:19N 48°26' W 123°26'0 0.0
2014-Nov-20 11:10N 48°26' W 123°26'0 0.0
2014-Nov-20 10:28N 48°26' W 123°26'0 0.0
2014-Nov-20 09:16N 48°26' W 123°26'0 0.0
2014-Nov-20 08:28N 48°26' W 123°26'0 0.0
2014-Nov-20 02:04N 48°26' W 123°26'0 0.0
2014-Nov-20 00:25N 48°26' W 123°26'0 0.0
2014-Nov-19 23:31N 48°26' W 123°26'0 0.0
2014-Nov-19 22:31N 48°26' W 123°26'0 0.0
2014-Nov-19 21:31N 48°26' W 123°26'0 0.0
2014-Nov-19 19:31N 48°26' W 123°26'0 0.0
2014-Nov-19 17:28N 48°26' W 123°26'0 0.0
2014-Nov-19 16:31N 48°26' W 123°26'0 0.0
2014-Nov-19 15:31N 48°26' W 123°26'0 0.0
2014-Nov-19 14:31N 48°26' W 123°26'0 0.0
2014-Nov-19 13:22N 48°26' W 123°26'0 0.0
2014-Nov-19 12:25N 48°26' W 123°26'0 0.0
2014-Nov-19 11:31N 48°26' W 123°26'0 0.0
2014-Nov-19 10:19N 48°26' W 123°26'0 0.0
2014-Nov-19 09:28N 48°26' W 123°26'0 0.0
2014-Nov-19 08:25N 48°26' W 123°26'0 0.0
2014-Nov-19 07:31N 48°26' W 123°26'0 0.0
2014-Nov-19 06:28N 48°26' W 123°26'0 0.0
2014-Nov-19 04:31N 48°26' W 123°26'0 0.0
2014-Nov-19 03:07N 48°26' W 123°26'0 0.0
2014-Nov-19 02:19N 48°26' W 123°26'0 0.0
2014-Nov-18 23:04N 48°26' W 123°26'0 0.0
2014-Nov-18 16:21N 48°26' W 123°26'0 0.0
2014-Nov-18 07:06N 48°26' W 123°26'0 0.0
2014-Nov-18 00:21N 48°26' W 123°26'0 0.0
2014-Nov-17 23:33N 48°26' W 123°26'0 0.0
2014-Nov-17 22:33N 48°26' W 123°26'0 0.0
2014-Nov-17 21:30N 48°26' W 123°26'0 0.0
2014-Nov-17 20:30N 48°26' W 123°26'0 0.0
2014-Nov-17 19:33N 48°26' W 123°26'3 2.6
2014-Nov-17 18:29N 48°23' W 123°27'  

Dump ship's entire track history